Silver Bay, MN (55614)

8:59 AM CST on February 14, 2016 (GMT -0600)
Silver Bay Municipal | | Change Station
CLOSE
Current Station
Airport
Location: Silver Bay,
Elevation: 1086 ft
Nearby Weather Stations

Elev 1086 ft 47.25 °N, 91.42 °W | Updated 5 minutes ago

Partly Cloudy
Partly Cloudy
-11 °F
Feels Like -11 °F
N
0
Wind Variable Wind from North

Today
High -- | Low -- °F
--% Chance of Precip.
Yesterday
High -- | Low -- °F
Precip. -- in
Pressure 30.07 in
Visibility 10.0 miles
Clouds Clear
Dew Point -18 °F
Humidity 70%
Rainfall 0.00 in
Snow Depth Not available.
7:12 AM 5:26 PM
Waxing Crescent, 42% visible
METAR KBFW 141454Z AUTO 00000KT 10SM CLR M24/M28 A3007 RMK AO2
Pressure 30.07 in
Visibility 10.0 miles
Clouds Clear
Dew Point -18 °F
Humidity 70%
Rainfall 0.00 in
Snow Depth Not available.
7:12 AM 5:26 PM
Waxing Crescent, 42% visible
METAR KBFW 141454Z AUTO 00000KT 10SM CLR M24/M28 A3007 RMK AO2

10-Day Weather Forecast

Almanac

Astronomy

Feb. 14, 2016 Rise Set
Actual Time
Civil Twilight
Nautical Twilight
Astronomical Twilight
Moon
Length of Visible Light
Length of Day
Tomorrow will be .
, % of the Moon is Illuminated

Today's Extremes

State Highs State Lows

Community

WunderPhotos

Upload Photos

1,892,781 photos uploaded!

WunderBlog® & News

Nearby

Air Quality

  Air Quality AQ Index Pollutant
Not available.

Snow Depth

Station Depth Elevation

Earthquake Activity

City Distance Mag. Time & Date
Minimum magnitude displayed is 2.5.

Coastal Water Temperatures

Place Temperature

Stations

Nearby Weather Stations

Station Location Temp. Windchill Dew Point Humidity Wind Precip. Elev Updated Type
                   

Watches & Warnings

There are currently no watches in effect.